LESTLETO

Guest
Details From LEST - Santiago
To LETO - Torrejon
Flight Number -
Tags decoded
Created
Modified
Stats Distance 265 nm / 492 km
Max Altitude 0 ft / 0 m
Waypoints 4
Social Downloads 0
Likes 0
Share VATSIM

Download

Looking for another format? Having issues loading an existing format? Contact us
Advertisement - Login to hide

Notes

Requested: LEST FORNO DESAT UN733 ZMR LETO Unmatched points: DESAT UN733

Route

LEST FORNO ZMR LETO

ID Type Via Altitude Latitude Longitude Leg Dist Tot Dist Heading (true) Name
O LEST APT - 0 ft / 0 m 42.89780˚ -8.41569˚ - 0 nm - Santiago
FORNO FIX - 0 ft / 0 m 42.46811˚ -7.48146˚ 48 nm 48 nm 122° / 122° -
ZMR VOR - 0 ft / 0 m 41.53018˚ -5.63970˚ 99 nm 148 nm 124° / 125° ZAMORA VOR-DME
O LETO APT - 0 ft / 0 m 40.49675˚ -3.44587˚ 117 nm 265 nm 121° / 123° Torrejon

Altitude Profile

Advertisement - Login to hide

Weather


0- 5 10 15 20 25 30 35+ Temperature / ° C

Clouds and Precipitation
Forecast for 2017-12-15 18:00 UTC. Updated 44 minutes ago

Ground ~20,000 ft ~40,000 ft Winds

LEST

Details ICAO LEST (SCQ)
Name Santiago
Region Spain
Timezone Europe/Madrid (UTC+1.0)
Stats Elevation 1,169 ft / 356 m (AMSL)
Location 42.897797° -8.415691°
Runways 1
Magnetic Variation 2.371° W

METAR

LEST 151400Z 35007KT 310V030 9999 SCT028 09/05 Q1017 NOSIG

Decode

TAF

TAF LEST 151100Z 1512/1612 32005KT 9999 SCT010 BKN015 TX09/1514Z TN01/1606Z TEMPO 1602/1610 1500 BCFG BKN005 PROB40 TEMPO 1602/1610 0800 BCFG BKN002

Decode

Departure Runways

ID Width Length Bearing (true) Bearing (mag) Surface Threshold Offset Overrun Length
17 148 ft / 45 m 10,509 ft / 3,203 m 166.04° 168.41° Asphalt 394 ft / 120 m 0 ft / 0 m
35 148 ft / 45 m 10,509 ft / 3,203 m 346.05° 348.42° Asphalt 0 ft / 0 m 197 ft / 60 m

LETO

Details ICAO LETO (TOJ)
Name Torrejon
Region Spain
Timezone Europe/Madrid (UTC+1.0)
Stats Elevation 2,025 ft / 617 m (AMSL)
Location 40.496746° -3.445870°
Runways 1
Magnetic Variation 0.653° W

METAR

LETO 151400Z 02008KT 340V050 9999 SCT028 SCT068 11/05 Q1010 NOSIG

Decode

TAF

TAF LETO 151100Z 1512/1612 01008KT 9999 FEW018 SCT045 TX12/1515Z TNM01/1607Z PROB30 TEMPO 1512/1516 3000 RA BKN010

Decode

Destination Runways

ID Width Length Bearing (true) Bearing (mag) Surface Threshold Offset Overrun Length
05 217 ft / 66 m 12,004 ft / 3,659 m 43.28° 43.93° Asphalt 0 ft / 0 m 2,739 ft / 835 m
23 217 ft / 66 m 12,004 ft / 3,659 m 223.30° 223.95° Asphalt 0 ft / 0 m 1,066 ft / 325 m

Approach Navaids

Runway Type Ident Frequency Range Bearing (true) Bearing (mag) Slope Elevation
23 Localiser ITJA 109.50 MHz 18 nm / 33 km 223.26° 223.92° - 2,025 ft / 617 m (AMSL)
23 Glidescope ITJA 109.50 MHz 10 nm / 19 km 223.29° 223.94° 3.00° 2,025 ft / 617 m (AMSL)
23 DME ITJA 109.50 MHz 18 nm / 33 km - - - 2,011 ft / 613 m (AMSL)

Popular Alternatives